createdAt,value
2023-02-15T00:00:50.049Z,966.34
2023-02-15T00:01:50.055Z,966.33
2023-02-15T00:02:50.044Z,966.35
2023-02-15T00:03:50.006Z,966.29
2023-02-15T00:04:49.962Z,966.32
2023-02-15T00:05:49.940Z,966.26
2023-02-15T00:06:49.929Z,966.29
2023-02-15T00:07:49.914Z,966.3
2023-02-15T00:08:49.895Z,966.24
2023-02-15T00:09:49.902Z,966.28
2023-02-15T00:10:49.870Z,966.23
2023-02-15T00:11:49.836Z,966.25
2023-02-15T00:12:49.815Z,966.22
2023-02-15T00:13:49.793Z,966.19
2023-02-15T00:14:49.775Z,966.18
2023-02-15T00:15:49.758Z,966.19
2023-02-15T00:16:49.737Z,966.22
2023-02-15T00:17:49.728Z,966.14
2023-02-15T00:18:49.702Z,966.12
2023-02-15T00:19:49.707Z,966.09
2023-02-15T00:20:49.674Z,966.13
2023-02-15T00:21:49.673Z,966.16
2023-02-15T00:22:49.624Z,966.1
2023-02-15T00:23:49.608Z,966.12
2023-02-15T00:24:49.586Z,966.13
2023-02-15T00:25:49.569Z,966.12
2023-02-15T00:26:49.550Z,966.09
2023-02-15T00:27:49.530Z,966.12
2023-02-15T00:28:49.510Z,966.1
2023-02-15T00:29:49.574Z,966.06
2023-02-15T00:30:49.599Z,966.07
2023-02-15T00:31:50.459Z,966.08
2023-02-15T00:32:50.376Z,966.1
2023-02-15T00:33:50.359Z,966.08
2023-02-15T00:34:50.340Z,966.09
2023-02-15T00:35:50.344Z,966.06
2023-02-15T00:36:50.303Z,966.09
2023-02-15T00:37:50.284Z,966.05
2023-02-15T00:38:50.262Z,966.14
2023-02-15T00:39:50.257Z,966.16
2023-02-15T00:40:50.222Z,966.11
2023-02-15T00:41:50.215Z,966.16
2023-02-15T00:42:50.188Z,966.14
2023-02-15T00:43:50.167Z,966.15
2023-02-15T00:44:50.147Z,966.14
2023-02-15T00:45:50.147Z,966.15
2023-02-15T00:46:50.113Z,966.12
2023-02-15T00:47:50.090Z,966.14
2023-02-15T00:48:50.068Z,966.1
2023-02-15T00:49:50.055Z,966.05
2023-02-15T00:50:50.028Z,966.11
2023-02-15T00:51:50.038Z,966.13
2023-02-15T00:52:49.988Z,966.13
2023-02-15T00:53:49.970Z,966.18
2023-02-15T00:54:49.949Z,966.16
2023-02-15T00:55:49.933Z,966.17
2023-02-15T00:56:49.911Z,966.14
2023-02-15T00:57:49.892Z,966.16
2023-02-15T00:58:49.869Z,966.21
2023-02-15T00:59:49.851Z,966.14
2023-02-15T01:00:49.829Z,966.16
2023-02-15T01:01:49.812Z,966.17
2023-02-15T01:02:49.792Z,966.16
2023-02-15T01:03:49.772Z,966.16
2023-02-15T01:04:49.769Z,966.14
2023-02-15T01:05:49.734Z,966.19
2023-02-15T01:06:49.711Z,966.21
2023-02-15T01:07:49.718Z,966.18
2023-02-15T01:08:49.672Z,966.2
2023-02-15T01:09:49.658Z,966.18
2023-02-15T01:10:49.632Z,966.17
2023-02-15T01:11:49.613Z,966.15
2023-02-15T01:12:49.595Z,966.15
2023-02-15T01:13:49.577Z,966.19
2023-02-15T01:14:49.554Z,966.14
2023-02-15T01:15:49.568Z,966.16
2023-02-15T01:16:49.556Z,966.13
2023-02-15T01:17:49.492Z,966.1
2023-02-15T01:18:49.483Z,966.12
2023-02-15T01:19:49.453Z,966.13
2023-02-15T01:20:49.454Z,966.07
2023-02-15T01:21:49.412Z,966.08
2023-02-15T01:22:49.393Z,966.07
2023-02-15T01:23:49.398Z,966.04
2023-02-15T01:24:49.352Z,966.01
2023-02-15T01:25:49.330Z,966.08
2023-02-15T01:26:49.356Z,966.07
2023-02-15T01:27:49.290Z,966.01
2023-02-15T01:28:49.283Z,966.02
2023-02-15T01:29:49.303Z,965.99
2023-02-15T01:30:49.345Z,965.96
2023-02-15T01:31:49.395Z,965.98
2023-02-15T01:32:49.189Z,966.01
2023-02-15T01:33:49.175Z,965.97
2023-02-15T01:34:49.151Z,965.97
2023-02-15T01:35:49.126Z,965.94
2023-02-15T01:36:49.108Z,965.89
2023-02-15T01:37:49.088Z,965.87
2023-02-15T01:38:49.068Z,965.9
2023-02-15T01:39:49.073Z,965.87
2023-02-15T01:40:49.027Z,965.83
2023-02-15T01:41:49.006Z,965.86
2023-02-15T01:42:48.986Z,965.82
2023-02-15T01:43:49.287Z,965.78
2023-02-15T01:44:49.276Z,965.75
2023-02-15T01:45:49.246Z,965.73
2023-02-15T01:46:49.228Z,965.74
2023-02-15T01:47:49.207Z,965.77
2023-02-15T01:48:49.183Z,965.71
2023-02-15T01:49:49.162Z,965.71
2023-02-15T01:50:49.143Z,965.76
2023-02-15T01:51:49.124Z,965.71
2023-02-15T01:52:49.101Z,965.69
2023-02-15T01:53:49.081Z,965.67
2023-02-15T01:54:49.067Z,965.72
2023-02-15T01:55:49.063Z,965.68
2023-02-15T01:56:49.018Z,965.69
2023-02-15T01:57:49.005Z,965.68
2023-02-15T01:58:48.979Z,965.67
2023-02-15T01:59:48.955Z,965.67
2023-02-15T02:00:48.935Z,965.65
2023-02-15T02:01:48.964Z,965.62
2023-02-15T02:02:48.927Z,965.57
2023-02-15T02:03:48.874Z,965.59
2023-02-15T02:04:48.853Z,965.57
2023-02-15T02:05:48.835Z,965.58
2023-02-15T02:06:48.814Z,965.54
2023-02-15T02:07:48.794Z,965.52
2023-02-15T02:08:48.771Z,965.54
2023-02-15T02:09:48.752Z,965.51
2023-02-15T02:10:48.735Z,965.56
2023-02-15T02:11:48.735Z,965.57
2023-02-15T02:12:48.689Z,965.51
2023-02-15T02:13:48.671Z,965.53
2023-02-15T02:14:48.648Z,965.5
2023-02-15T02:15:48.640Z,965.53
2023-02-15T02:16:48.609Z,965.57
2023-02-15T02:17:48.592Z,965.55
2023-02-15T02:18:48.567Z,965.57
2023-02-15T02:19:48.547Z,965.55
2023-02-15T02:20:48.527Z,965.56
2023-02-15T02:21:48.509Z,965.54
2023-02-15T02:22:48.503Z,965.53
2023-02-15T02:23:48.466Z,965.57
2023-02-15T02:24:48.450Z,965.51
2023-02-15T02:25:48.425Z,965.5
2023-02-15T02:26:48.403Z,965.45
2023-02-15T02:27:48.411Z,965.47
2023-02-15T02:28:48.363Z,965.43
2023-02-15T02:29:48.342Z,965.46
2023-02-15T02:30:48.513Z,965.44
2023-02-15T02:31:48.334Z,965.42
2023-02-15T02:32:48.280Z,965.4
2023-02-15T02:33:48.260Z,965.38
2023-02-15T02:34:48.240Z,965.33
2023-02-15T02:35:48.220Z,965.35
2023-02-15T02:36:48.198Z,965.31
2023-02-15T02:37:48.179Z,965.28
2023-02-15T02:38:48.158Z,965.28
2023-02-15T02:39:48.141Z,965.29
2023-02-15T02:40:48.118Z,965.24
2023-02-15T02:41:48.101Z,965.22
2023-02-15T02:42:48.076Z,965.23
2023-02-15T02:43:48.082Z,965.23
2023-02-15T02:44:48.040Z,965.22
2023-02-15T02:45:48.017Z,965.2
2023-02-15T02:46:48.081Z,965.22
2023-02-15T02:47:47.982Z,965.21
2023-02-15T02:48:47.955Z,965.17
2023-02-15T02:49:47.938Z,965.18
2023-02-15T02:50:47.913Z,965.12
2023-02-15T02:51:47.897Z,965.13
2023-02-15T02:52:47.886Z,965.13
2023-02-15T02:53:47.856Z,965.13
2023-02-15T02:54:47.835Z,965.06
2023-02-15T02:55:47.812Z,965.06
2023-02-15T02:56:47.795Z,965.04
2023-02-15T02:57:47.780Z,965.01
2023-02-15T02:58:47.754Z,964.98
2023-02-15T02:59:47.758Z,964.99
2023-02-15T03:00:47.715Z,965
2023-02-15T03:01:47.776Z,965
2023-02-15T03:02:47.713Z,964.95
2023-02-15T03:03:47.653Z,964.98
2023-02-15T03:04:47.636Z,964.9
2023-02-15T03:05:47.613Z,964.92
2023-02-15T03:06:47.598Z,964.89
2023-02-15T03:07:47.577Z,964.91
2023-02-15T03:08:47.556Z,964.9
2023-02-15T03:09:47.535Z,964.86
2023-02-15T03:10:47.519Z,964.85
2023-02-15T03:11:47.506Z,964.85
2023-02-15T03:12:47.480Z,964.87
2023-02-15T03:13:47.458Z,964.84
2023-02-15T03:14:47.471Z,964.86
2023-02-15T03:15:47.457Z,964.87
2023-02-15T03:16:47.399Z,964.89
2023-02-15T03:17:47.382Z,964.89
2023-02-15T03:18:47.362Z,964.91
2023-02-15T03:19:47.341Z,964.89
2023-02-15T03:20:47.322Z,964.95
2023-02-15T03:21:47.301Z,964.9
2023-02-15T03:22:47.295Z,964.92
2023-02-15T03:23:47.261Z,964.9
2023-02-15T03:24:47.245Z,964.87
2023-02-15T03:25:47.224Z,964.92
2023-02-15T03:26:47.205Z,964.88
2023-02-15T03:27:47.190Z,964.93
2023-02-15T03:28:47.175Z,964.9
2023-02-15T03:29:47.144Z,964.94
2023-02-15T03:30:47.155Z,964.92
2023-02-15T03:31:47.218Z,964.94
2023-02-15T03:32:47.092Z,964.88
2023-02-15T03:49:48.836Z,964.97
2023-02-15T03:50:48.828Z,964.91
2023-02-15T03:51:48.764Z,964.95
2023-02-15T03:52:48.740Z,964.95
2023-02-15T03:53:48.725Z,964.97
2023-02-15T03:54:48.735Z,964.92
2023-02-15T03:55:48.678Z,964.93
2023-02-15T03:56:48.656Z,964.87
2023-02-15T03:57:48.646Z,964.86
2023-02-15T03:58:48.616Z,964.88
2023-02-15T03:59:48.594Z,964.87
2023-02-15T04:00:48.628Z,964.89
2023-02-15T04:01:48.553Z,964.92
2023-02-15T04:02:48.554Z,964.9
2023-02-15T04:03:48.514Z,964.9
2023-02-15T04:04:48.492Z,964.88
2023-02-15T04:05:48.503Z,964.9
2023-02-15T04:06:48.454Z,964.88
2023-02-15T04:07:48.441Z,964.88
2023-02-15T04:08:48.409Z,964.85
2023-02-15T04:09:48.397Z,964.85
2023-02-15T04:10:48.372Z,964.86
2023-02-15T04:11:48.355Z,964.85
2023-02-15T04:12:48.680Z,964.85
2023-02-15T04:13:48.661Z,964.92
2023-02-15T04:14:48.634Z,964.87
2023-02-15T04:15:48.614Z,964.89
2023-02-15T04:16:48.637Z,964.85
2023-02-15T04:17:48.579Z,964.82
2023-02-15T04:18:48.578Z,964.84
2023-02-15T04:19:48.542Z,964.85
2023-02-15T04:20:48.516Z,964.77
2023-02-15T04:21:48.517Z,964.8
2023-02-15T04:22:48.473Z,964.79
2023-02-15T04:23:48.452Z,964.8
2023-02-15T04:24:48.431Z,964.74
2023-02-15T04:25:49.209Z,964.71
2023-02-15T04:26:49.191Z,964.73
2023-02-15T04:27:49.168Z,964.69
2023-02-15T04:28:49.146Z,964.72
2023-02-15T04:29:49.189Z,964.72
2023-02-15T04:30:49.119Z,964.71
2023-02-15T04:31:49.303Z,964.68
2023-02-15T04:32:49.079Z,964.68
2023-02-15T04:33:49.049Z,964.7
2023-02-15T04:34:49.030Z,964.72
2023-02-15T04:35:49.021Z,964.69
2023-02-15T04:36:48.989Z,964.71
2023-02-15T04:37:48.995Z,964.66
2023-02-15T04:38:48.950Z,964.66
2023-02-15T04:39:48.932Z,964.7
2023-02-15T04:40:48.911Z,964.65
2023-02-15T04:41:48.961Z,964.69
2023-02-15T04:42:48.870Z,964.69
2023-02-15T04:43:48.851Z,964.67
2023-02-15T04:44:48.832Z,964.71
2023-02-15T04:45:48.860Z,964.69
2023-02-15T04:46:48.803Z,964.69
2023-02-15T04:47:48.786Z,964.68
2023-02-15T04:48:48.756Z,964.68
2023-02-15T04:49:48.734Z,964.65
2023-02-15T04:50:48.716Z,964.65
2023-02-15T04:51:48.696Z,964.63
2023-02-15T04:52:48.684Z,964.58
2023-02-15T04:53:48.685Z,964.57
2023-02-15T04:54:48.638Z,964.64
2023-02-15T04:55:48.618Z,964.64
2023-02-15T04:56:48.599Z,964.66
2023-02-15T04:57:48.580Z,964.61
2023-02-15T04:58:48.560Z,964.63
2023-02-15T04:59:48.547Z,964.61
2023-02-15T05:00:48.605Z,964.6
2023-02-15T05:01:48.503Z,964.62
2023-02-15T05:02:48.484Z,964.62
2023-02-15T05:03:48.461Z,964.59
2023-02-15T05:04:48.442Z,964.59
2023-02-15T05:05:48.422Z,964.62
2023-02-15T05:06:48.407Z,964.61
2023-02-15T05:07:48.385Z,964.6
2023-02-15T05:08:48.366Z,964.54
2023-02-15T05:09:48.368Z,964.58
2023-02-15T05:10:48.325Z,964.6
2023-02-15T05:11:48.304Z,964.59
2023-02-15T05:12:48.295Z,964.54
2023-02-15T05:13:48.265Z,964.51
2023-02-15T05:14:48.247Z,964.53
2023-02-15T05:15:48.224Z,964.54
2023-02-15T05:16:48.250Z,964.55
2023-02-15T05:17:48.188Z,964.51
2023-02-15T05:18:48.168Z,964.55
2023-02-15T05:19:48.150Z,964.53
2023-02-15T05:20:48.127Z,964.51
2023-02-15T05:21:48.106Z,964.56
2023-02-15T05:22:48.087Z,964.58
2023-02-15T05:23:48.068Z,964.61
2023-02-15T05:24:48.065Z,964.61
2023-02-15T05:25:48.054Z,964.57
2023-02-15T05:26:48.028Z,964.58
2023-02-15T05:27:48.000Z,964.61
2023-02-15T05:28:47.975Z,964.63
2023-02-15T05:29:47.976Z,964.6
2023-02-15T05:30:48.095Z,964.62
2023-02-15T05:31:48.049Z,964.56
2023-02-15T05:32:47.922Z,964.6
2023-02-15T05:33:47.872Z,964.54
2023-02-15T05:34:47.857Z,964.56
2023-02-15T05:35:47.836Z,964.58
2023-02-15T05:36:47.814Z,964.58
2023-02-15T05:37:47.794Z,964.57
2023-02-15T05:38:47.773Z,964.56
2023-02-15T05:39:47.756Z,964.6
2023-02-15T05:40:49.851Z,964.59
2023-02-15T05:41:47.740Z,964.58
2023-02-15T05:42:47.696Z,964.62
2023-02-15T05:43:47.677Z,964.57
2023-02-15T05:44:47.654Z,964.55
2023-02-15T05:45:47.682Z,964.58
2023-02-15T05:46:47.615Z,964.61
2023-02-15T05:47:47.602Z,964.57
2023-02-15T05:48:47.581Z,964.6
2023-02-15T05:49:47.558Z,964.58
2023-02-15T05:50:48.255Z,964.59
2023-02-15T05:51:48.238Z,964.59
2023-02-15T05:52:48.214Z,964.56
2023-02-15T05:53:48.197Z,964.6
2023-02-15T05:54:48.175Z,964.56
2023-02-15T05:55:48.156Z,964.6
2023-02-15T05:56:48.132Z,964.57
2023-02-15T05:57:48.139Z,964.58
2023-02-15T05:58:48.094Z,964.57
2023-02-15T05:59:48.075Z,964.58
2023-02-15T06:00:48.054Z,964.57
2023-02-15T06:01:48.037Z,964.63
2023-02-15T06:02:48.080Z,964.6
2023-02-15T06:03:48.062Z,964.58
2023-02-15T06:04:47.971Z,964.58
2023-02-15T06:05:47.954Z,964.57
2023-02-15T06:06:47.933Z,964.52
2023-02-15T06:07:47.915Z,964.57
2023-02-15T06:08:47.892Z,964.53
2023-02-15T06:09:47.873Z,964.55
2023-02-15T06:10:47.865Z,964.61
2023-02-15T06:11:47.833Z,964.62
2023-02-15T06:12:47.817Z,964.59
2023-02-15T06:13:47.820Z,964.65
2023-02-15T06:14:47.775Z,964.59
2023-02-15T06:15:47.813Z,964.63
2023-02-15T06:16:47.739Z,964.63
2023-02-15T06:17:47.713Z,964.65
2023-02-15T06:18:47.691Z,964.65
2023-02-15T06:19:47.674Z,964.72
2023-02-15T06:20:47.652Z,964.69
2023-02-15T06:21:47.632Z,964.67
2023-02-15T06:22:47.613Z,964.72
2023-02-15T06:23:47.594Z,964.7
2023-02-15T06:24:47.572Z,964.73
2023-02-15T06:25:47.554Z,964.69
2023-02-15T06:26:47.531Z,964.7
2023-02-15T06:27:47.509Z,964.75
2023-02-15T06:28:47.503Z,964.75
2023-02-15T06:29:47.493Z,964.78
2023-02-15T06:30:47.498Z,964.78
2023-02-15T06:31:47.548Z,964.85
2023-02-15T06:32:47.411Z,964.8
2023-02-15T06:33:47.390Z,964.83
2023-02-15T06:34:48.780Z,964.85
2023-02-15T06:35:47.351Z,964.8
2023-02-15T06:36:47.326Z,964.78
2023-02-15T06:37:47.310Z,964.81
2023-02-15T06:38:47.289Z,964.82
2023-02-15T06:39:47.266Z,964.79
2023-02-15T06:40:47.246Z,964.77
2023-02-15T06:41:47.225Z,964.8
2023-02-15T06:42:47.209Z,964.8
2023-02-15T06:43:47.184Z,964.81
2023-02-15T06:44:47.168Z,964.8
2023-02-15T06:45:47.172Z,964.82
2023-02-15T06:46:47.232Z,964.78
2023-02-15T06:47:47.298Z,964.8
2023-02-15T06:48:47.277Z,964.81
2023-02-15T06:49:47.258Z,964.79
2023-02-15T06:50:47.240Z,964.82
2023-02-15T06:51:47.222Z,964.79
2023-02-15T06:52:47.200Z,964.8
2023-02-15T06:53:47.179Z,964.83
2023-02-15T06:54:47.162Z,964.83
2023-02-15T06:55:47.136Z,964.79
2023-02-15T06:56:47.114Z,964.78
2023-02-15T06:57:48.388Z,964.73
2023-02-15T06:58:47.096Z,964.71
2023-02-15T06:59:47.054Z,964.7
2023-02-15T07:00:47.043Z,964.68
2023-02-15T07:01:47.088Z,964.7
2023-02-15T07:02:46.993Z,964.69
2023-02-15T07:03:46.972Z,964.67
2023-02-15T07:04:46.979Z,964.68
2023-02-15T07:05:46.931Z,964.68
2023-02-15T07:06:46.919Z,964.71
2023-02-15T07:07:46.891Z,964.7
2023-02-15T07:08:46.877Z,964.7
2023-02-15T07:09:46.848Z,964.67
2023-02-15T07:10:46.837Z,964.67
2023-02-15T07:11:46.808Z,964.69
2023-02-15T07:12:46.801Z,964.71
2023-02-15T07:13:46.771Z,964.66
2023-02-15T07:14:46.747Z,964.67
2023-02-15T07:15:46.745Z,964.62
2023-02-15T07:16:46.707Z,964.61
2023-02-15T07:17:46.713Z,964.61
2023-02-15T07:18:46.667Z,964.64
2023-02-15T07:19:46.648Z,964.59
2023-02-15T07:20:46.628Z,964.57
2023-02-15T07:21:46.661Z,964.59
2023-02-15T07:22:46.603Z,964.61
2023-02-15T07:23:46.571Z,964.54
2023-02-15T07:24:46.553Z,964.57
2023-02-15T07:25:46.530Z,964.57
2023-02-15T07:26:46.509Z,964.55
2023-02-15T07:27:46.501Z,964.5
2023-02-15T07:28:46.485Z,964.54
2023-02-15T07:29:46.451Z,964.52
2023-02-15T07:30:46.464Z,964.48
2023-02-15T07:31:46.468Z,964.51
2023-02-15T07:32:46.422Z,964.51
2023-02-15T07:33:46.401Z,964.5
2023-02-15T07:34:46.359Z,964.51
2023-02-15T07:35:46.336Z,964.48
2023-02-15T07:36:46.316Z,964.49
2023-02-15T07:37:46.298Z,964.49
2023-02-15T07:38:46.278Z,964.5
2023-02-15T07:39:46.260Z,964.47
2023-02-15T07:40:46.253Z,964.48
2023-02-15T07:41:46.222Z,964.44
2023-02-15T07:42:46.203Z,964.46
2023-02-15T07:43:46.196Z,964.43
2023-02-15T07:44:46.169Z,964.44
2023-02-15T07:45:46.147Z,964.38
2023-02-15T07:46:46.183Z,964.43
2023-02-15T07:47:46.107Z,964.46
2023-02-15T07:48:46.089Z,964.41
2023-02-15T07:49:46.101Z,964.38
2023-02-15T07:50:46.056Z,964.39
2023-02-15T07:51:46.035Z,964.4
2023-02-15T07:52:46.021Z,964.41
2023-02-15T07:53:46.000Z,964.42
2023-02-15T07:54:45.977Z,964.4
2023-02-15T07:55:45.967Z,964.34
2023-02-15T07:56:45.941Z,964.35
2023-02-15T07:57:45.937Z,964.32
2023-02-15T07:58:45.907Z,964.36
2023-02-15T07:59:45.894Z,964.35
2023-02-15T08:00:45.868Z,964.3
2023-02-15T08:01:45.850Z,964.27
2023-02-15T08:02:45.850Z,964.28
2023-02-15T08:03:45.861Z,964.28
2023-02-15T08:04:45.793Z,964.23
2023-02-15T08:05:45.926Z,964.21
2023-02-15T08:06:45.758Z,964.2
2023-02-15T08:07:45.742Z,964.12
2023-02-15T08:08:45.722Z,964.14
2023-02-15T08:09:45.703Z,964.13
2023-02-15T08:10:45.687Z,964.12
2023-02-15T08:11:45.667Z,964.12
2023-02-15T08:12:45.654Z,964.12
2023-02-15T08:13:45.633Z,964.11
2023-02-15T08:14:45.623Z,964.1
2023-02-15T08:15:45.598Z,964.12
2023-02-15T08:16:45.613Z,964.07
2023-02-15T08:17:45.576Z,964.02
2023-02-15T08:18:45.546Z,964.05
2023-02-15T08:19:45.532Z,964.04
2023-02-15T08:20:45.510Z,964.03
2023-02-15T08:21:45.517Z,964.01
2023-02-15T08:22:45.475Z,964.03
2023-02-15T08:23:45.467Z,964.02
2023-02-15T08:24:45.439Z,964.03
2023-02-15T08:25:45.425Z,964
2023-02-15T08:26:45.407Z,963.99
2023-02-15T08:27:45.385Z,963.92
2023-02-15T08:28:45.384Z,963.95
2023-02-15T08:29:45.355Z,963.95
2023-02-15T08:30:45.335Z,963.92
2023-02-15T08:31:45.404Z,963.91
2023-02-15T08:32:45.300Z,963.91
2023-02-15T08:33:45.312Z,963.93
2023-02-15T08:34:45.264Z,963.92
2023-02-15T08:35:45.245Z,963.91
2023-02-15T08:36:45.230Z,963.92
2023-02-15T08:37:45.235Z,963.87
2023-02-15T08:38:45.196Z,963.85
2023-02-15T08:39:45.180Z,963.86
2023-02-15T08:40:45.170Z,963.84
2023-02-15T08:41:45.180Z,963.78
2023-02-15T08:42:45.130Z,963.77
2023-02-15T08:43:45.131Z,963.81
2023-02-15T08:44:45.093Z,963.81
2023-02-15T08:45:45.092Z,963.8
2023-02-15T08:46:45.055Z,963.81
2023-02-15T08:47:45.037Z,963.78
2023-02-15T08:48:45.041Z,963.79
2023-02-15T08:49:45.003Z,963.79
2023-02-15T08:50:44.986Z,963.75
2023-02-15T08:51:44.968Z,963.78
2023-02-15T08:52:44.951Z,963.75
2023-02-15T08:53:44.965Z,963.76
2023-02-15T08:54:44.916Z,963.78
2023-02-15T08:55:44.901Z,963.71
2023-02-15T08:56:44.891Z,963.74
2023-02-15T08:57:44.864Z,963.72
2023-02-15T08:58:44.847Z,963.69
2023-02-15T08:59:44.832Z,963.72
2023-02-15T09:00:46.565Z,963.73
2023-02-15T09:01:44.796Z,963.76
2023-02-15T09:02:44.778Z,963.72
2023-02-15T09:03:44.779Z,963.68
2023-02-15T09:04:44.743Z,963.76
2023-02-15T09:05:44.735Z,963.73
2023-02-15T09:06:46.392Z,963.72
2023-02-15T09:07:44.694Z,963.77
2023-02-15T09:08:44.679Z,963.78
2023-02-15T09:09:44.699Z,963.7
2023-02-15T09:10:44.642Z,963.72
2023-02-15T09:11:44.629Z,963.74
2023-02-15T09:12:44.608Z,963.71
2023-02-15T09:13:44.616Z,963.65
2023-02-15T09:14:44.583Z,963.69
2023-02-15T09:15:44.565Z,963.65
2023-02-15T09:16:44.613Z,963.67
2023-02-15T09:17:44.534Z,963.68
2023-02-15T09:18:44.507Z,963.68
2023-02-15T09:19:44.492Z,963.65
2023-02-15T09:20:44.472Z,963.68
2023-02-15T09:21:44.456Z,963.67
2023-02-15T09:22:44.445Z,963.7
2023-02-15T09:23:44.457Z,963.67
2023-02-15T09:24:44.405Z,963.69
2023-02-15T09:25:44.413Z,963.71
2023-02-15T09:26:44.370Z,963.69
2023-02-15T09:27:44.355Z,963.69
2023-02-15T09:28:44.338Z,963.71
2023-02-15T09:29:44.323Z,963.76
2023-02-15T09:30:44.512Z,963.73
2023-02-15T09:31:44.319Z,963.71
2023-02-15T09:32:44.284Z,963.68
2023-02-15T09:33:44.297Z,963.7
2023-02-15T09:34:44.239Z,963.66
2023-02-15T09:35:44.224Z,963.7
2023-02-15T09:36:44.208Z,963.67
2023-02-15T09:37:44.191Z,963.67
2023-02-15T09:38:44.174Z,963.68
2023-02-15T09:39:44.177Z,963.7
2023-02-15T09:40:44.140Z,963.73
2023-02-15T09:41:44.158Z,963.69
2023-02-15T09:42:44.112Z,963.7
2023-02-15T09:43:44.102Z,963.7
2023-02-15T09:44:44.080Z,963.76
2023-02-15T09:45:44.092Z,963.79
2023-02-15T09:46:44.053Z,963.77
2023-02-15T09:47:44.040Z,963.81
2023-02-15T09:48:44.018Z,963.79
2023-02-15T09:49:43.998Z,963.8
2023-02-15T09:50:43.984Z,963.85
2023-02-15T09:51:43.970Z,963.82
2023-02-15T09:52:43.953Z,963.84
2023-02-15T09:53:44.004Z,963.85
2023-02-15T09:54:43.922Z,963.82
2023-02-15T09:55:43.918Z,963.81
2023-02-15T09:56:43.891Z,963.8
2023-02-15T09:57:43.913Z,963.85
2023-02-15T09:58:43.862Z,963.83
2023-02-15T09:59:43.848Z,963.85
2023-02-15T10:00:43.831Z,963.85
2023-02-15T10:01:43.870Z,963.83
2023-02-15T10:02:43.811Z,963.81
2023-02-15T10:03:43.855Z,963.82
2023-02-15T10:04:43.832Z,963.83
2023-02-15T10:05:43.754Z,963.89
2023-02-15T10:06:43.744Z,963.9
2023-02-15T10:07:43.726Z,963.93
2023-02-15T10:08:43.709Z,963.88
2023-02-15T10:09:43.700Z,963.88
2023-02-15T10:10:43.680Z,963.95
2023-02-15T10:11:43.666Z,963.91
2023-02-15T10:12:43.668Z,963.9
2023-02-15T10:13:43.703Z,963.87
2023-02-15T10:14:43.619Z,963.86
2023-02-15T10:15:43.603Z,963.85
2023-02-15T10:16:43.604Z,963.89
2023-02-15T10:17:43.580Z,963.8
2023-02-15T10:18:43.558Z,963.8
2023-02-15T10:19:43.542Z,963.8
2023-02-15T10:20:43.530Z,963.8
2023-02-15T10:21:43.515Z,963.79
2023-02-15T10:22:43.498Z,963.81
2023-02-15T10:23:43.482Z,963.77
2023-02-15T10:24:47.279Z,963.81
2023-02-15T10:25:43.452Z,963.79
2023-02-15T10:26:43.439Z,963.75
2023-02-15T10:27:43.422Z,963.78
2023-02-15T10:28:43.410Z,963.78
2023-02-15T10:29:43.521Z,963.72
2023-02-15T10:30:43.479Z,963.82
2023-02-15T10:31:43.494Z,963.78
2023-02-15T10:32:43.349Z,963.78
2023-02-15T10:33:43.417Z,963.77
2023-02-15T10:34:43.346Z,963.76
2023-02-15T10:35:43.325Z,963.74
2023-02-15T10:36:43.311Z,963.73
2023-02-15T10:37:43.298Z,963.69
2023-02-15T10:38:43.282Z,963.67
2023-02-15T10:39:43.269Z,963.69
2023-02-15T10:40:43.253Z,963.77
2023-02-15T10:41:43.241Z,963.72
2023-02-15T10:42:43.226Z,963.66
2023-02-15T10:43:43.210Z,963.64
2023-02-15T10:44:43.193Z,963.69
2023-02-15T10:45:43.213Z,963.63
2023-02-15T10:46:43.167Z,963.63
2023-02-15T10:47:43.155Z,963.61
2023-02-15T10:48:43.137Z,963.64
2023-02-15T10:49:43.724Z,963.63
2023-02-15T10:50:43.719Z,963.61
2023-02-15T10:51:43.695Z,963.61
2023-02-15T10:52:43.680Z,963.66
2023-02-15T10:53:43.671Z,963.59
2023-02-15T10:54:43.659Z,963.65
2023-02-15T10:55:43.641Z,963.65
2023-02-15T10:56:43.625Z,963.67
2023-02-15T10:57:43.616Z,963.63
2023-02-15T10:58:43.599Z,963.64
2023-02-15T10:59:43.586Z,963.59
2023-02-15T11:00:43.570Z,963.58
2023-02-15T11:01:43.629Z,963.55
2023-02-15T11:02:43.554Z,963.58
2023-02-15T11:03:43.544Z,963.55
2023-02-15T11:04:43.537Z,963.55
2023-02-15T11:05:43.511Z,963.55
2023-02-15T11:06:43.490Z,963.5
2023-02-15T11:07:43.479Z,963.52
2023-02-15T11:08:43.463Z,963.52
2023-02-15T11:09:43.472Z,963.5
2023-02-15T11:10:43.460Z,963.47
2023-02-15T11:11:43.441Z,963.5
2023-02-15T11:12:43.417Z,963.48
2023-02-15T11:13:43.798Z,963.42
2023-02-15T11:14:43.786Z,963.44
2023-02-15T11:15:43.839Z,963.43
2023-02-15T11:16:43.873Z,963.39
2023-02-15T11:17:43.774Z,963.4
2023-02-15T11:18:43.733Z,963.41
2023-02-15T11:19:43.722Z,963.45
2023-02-15T11:20:43.707Z,963.4
2023-02-15T11:21:43.697Z,963.37
2023-02-15T11:22:43.683Z,963.4
2023-02-15T11:23:43.672Z,963.36
2023-02-15T11:24:43.659Z,963.39
2023-02-15T11:25:43.651Z,963.35
2023-02-15T11:26:43.633Z,963.37
2023-02-15T11:27:43.655Z,963.31
2023-02-15T11:28:43.608Z,963.35
2023-02-15T11:29:43.598Z,963.3
2023-02-15T11:30:43.607Z,963.32
2023-02-15T11:31:43.704Z,963.33
2023-02-15T11:32:43.561Z,963.38
2023-02-15T11:33:43.576Z,963.34
2023-02-15T11:34:43.793Z,963.36
2023-02-15T11:35:43.777Z,963.3
2023-02-15T11:36:43.769Z,963.32
2023-02-15T11:37:43.755Z,963.33
2023-02-15T11:38:43.742Z,963.33
2023-02-15T11:39:43.728Z,963.29
2023-02-15T11:40:43.717Z,963.29
2023-02-15T11:41:43.703Z,963.34
2023-02-15T11:42:43.700Z,963.26
2023-02-15T11:43:43.683Z,963.29
2023-02-15T11:44:43.668Z,963.25
2023-02-15T11:45:43.670Z,963.26
2023-02-15T11:46:43.755Z,963.28
2023-02-15T11:47:43.638Z,963.24
2023-02-15T11:48:43.628Z,963.27
2023-02-15T11:49:43.629Z,963.25
2023-02-15T11:50:43.600Z,963.25
2023-02-15T11:51:43.583Z,963.22
2023-02-15T11:52:43.571Z,963.27
2023-02-15T11:53:43.957Z,963.23
2023-02-15T11:54:43.948Z,963.21
2023-02-15T11:55:43.941Z,963.23
2023-02-15T11:56:43.924Z,963.22
2023-02-15T11:57:43.912Z,963.23
2023-02-15T11:58:43.899Z,963.19
2023-02-15T11:59:43.886Z,963.22
2023-02-15T12:00:43.876Z,963.2
2023-02-15T12:01:43.868Z,963.16
2023-02-15T12:02:43.918Z,963.22
2023-02-15T12:03:43.916Z,963.16
2023-02-15T12:04:43.829Z,963.15
2023-02-15T12:05:43.844Z,963.13
2023-02-15T12:06:43.802Z,963.12
2023-02-15T12:07:43.792Z,963.12
2023-02-15T12:08:43.784Z,963.11
2023-02-15T12:09:43.786Z,963.08
2023-02-15T12:10:43.763Z,963.06
2023-02-15T12:11:43.762Z,963.02
2023-02-15T12:12:43.738Z,963.06
2023-02-15T12:13:43.719Z,963.04
2023-02-15T12:14:43.722Z,963.04
2023-02-15T12:15:43.726Z,963.01
2023-02-15T12:16:43.688Z,963.05
2023-02-15T12:17:43.672Z,963.01
2023-02-15T12:18:43.663Z,963.05
2023-02-15T12:19:43.648Z,963.02
2023-02-15T12:20:43.640Z,963
2023-02-15T12:21:43.753Z,962.98
2023-02-15T12:22:43.621Z,963
2023-02-15T12:23:43.604Z,963.01
2023-02-15T12:24:43.590Z,963.06
2023-02-15T12:25:43.583Z,963.03
2023-02-15T12:26:43.567Z,963.02
2023-02-15T12:27:43.557Z,963.01
2023-02-15T12:28:43.543Z,962.95
2023-02-15T12:29:43.532Z,962.96
2023-02-15T12:30:43.519Z,962.93
2023-02-15T12:31:43.591Z,962.9
2023-02-15T12:32:43.496Z,962.92
2023-02-15T12:33:43.485Z,962.93
2023-02-15T12:34:43.473Z,962.93
2023-02-15T12:35:43.461Z,962.93
2023-02-15T12:36:43.449Z,962.93
2023-02-15T12:37:43.463Z,962.93
2023-02-15T12:38:43.422Z,962.9
2023-02-15T12:39:43.414Z,962.93
2023-02-15T12:40:43.401Z,962.93
2023-02-15T12:41:43.391Z,962.94
2023-02-15T12:42:43.377Z,962.98
2023-02-15T12:43:43.383Z,962.95
2023-02-15T12:44:43.352Z,962.96
2023-02-15T12:45:43.343Z,962.97
2023-02-15T12:46:44.119Z,962.95
2023-02-15T12:47:43.317Z,962.96